createdAt,value
2019-02-24T00:01:58.746Z,49.43
2019-02-24T00:04:29.045Z,45.77
2019-02-24T00:06:59.330Z,44.73
2019-02-24T00:09:29.821Z,43.20
2019-02-24T00:12:00.091Z,50.53
2019-02-24T00:14:30.391Z,51.17
2019-02-24T00:17:01.010Z,45.80
2019-02-24T00:19:31.372Z,47.90
2019-02-24T00:22:02.106Z,45.57
2019-02-24T00:24:32.495Z,50.10
2019-02-24T00:27:02.868Z,47.47
2019-02-24T00:29:33.294Z,41.97
2019-02-24T00:32:03.539Z,44.33
2019-02-24T00:34:33.973Z,44.20
2019-02-24T00:37:04.220Z,49.03
2019-02-24T00:39:34.546Z,46.10
2019-02-24T00:42:05.154Z,50.00
2019-02-24T00:44:35.778Z,43.33
2019-02-24T00:47:06.060Z,45.90
2019-02-24T00:49:36.438Z,48.23
2019-02-24T00:52:06.744Z,50.93
2019-02-24T00:54:37.042Z,47.53
2019-02-24T00:57:07.302Z,44.97
2019-02-24T00:59:37.589Z,51.57
2019-02-24T01:02:08.057Z,51.83
2019-02-24T01:04:38.305Z,40.13
2019-02-24T01:07:08.625Z,47.77
2019-02-24T01:09:39.113Z,50.07
2019-02-24T01:12:09.413Z,52.13
2019-02-24T01:14:40.048Z,45.20
2019-02-24T01:17:10.184Z,42.83
2019-02-24T01:19:40.475Z,57.97
2019-02-24T01:22:11.162Z,54.47
2019-02-24T01:24:41.869Z,47.70
2019-02-24T01:27:12.179Z,47.03
2019-02-24T01:29:42.521Z,44.13
2019-02-24T01:32:12.885Z,44.83
2019-02-24T01:34:44.555Z,49.97
2019-02-24T01:37:14.821Z,48.17
2019-02-24T01:39:45.466Z,45.00
2019-02-24T01:42:15.662Z,42.33
2019-02-24T01:44:46.223Z,43.50
2019-02-24T01:47:16.638Z,43.10
2019-02-24T01:49:47.099Z,42.23
2019-02-24T01:52:18.225Z,46.07
2019-02-24T01:54:48.654Z,42.30
2019-02-24T01:57:19.067Z,41.80
2019-02-24T01:59:49.523Z,46.03
2019-02-24T02:02:20.005Z,40.23
2019-02-24T02:04:50.321Z,37.53
2019-02-24T02:07:20.803Z,42.23
2019-02-24T02:09:51.078Z,39.07
2019-02-24T02:12:21.397Z,46.33
2019-02-24T02:14:51.950Z,47.33
2019-02-24T02:17:22.291Z,42.43
2019-02-24T02:19:52.550Z,41.57
2019-02-24T02:22:22.836Z,46.03
2019-02-24T02:24:53.764Z,44.93
2019-02-24T02:27:24.055Z,36.27
2019-02-24T02:29:54.530Z,44.30
2019-02-24T02:32:24.780Z,42.83
2019-02-24T02:34:55.108Z,40.40
2019-02-24T02:37:26.120Z,47.27
2019-02-24T02:39:56.368Z,54.10
2019-02-24T02:42:26.853Z,45.70
2019-02-24T02:44:57.154Z,43.80
2019-02-24T02:47:27.612Z,49.20
2019-02-24T02:49:57.860Z,42.10
2019-02-24T02:52:28.159Z,45.70
2019-02-24T02:54:58.478Z,41.37
2019-02-24T02:57:28.754Z,41.23
2019-02-24T02:59:59.039Z,49.33
2019-02-24T03:02:29.448Z,49.00
2019-02-24T03:04:59.776Z,46.77
2019-02-24T03:07:58.144Z,54.10
2019-02-24T03:10:28.450Z,48.90
2019-02-24T03:12:58.772Z,51.70
2019-02-24T03:15:29.090Z,51.87
2019-02-24T03:17:59.361Z,48.07
2019-02-24T03:20:29.708Z,47.20
2019-02-24T03:22:59.951Z,48.40
2019-02-24T03:25:31.326Z,52.63
2019-02-24T03:28:01.750Z,50.70
2019-02-24T03:30:32.411Z,47.50
2019-02-24T03:33:02.820Z,48.63
2019-02-24T03:35:33.296Z,43.50
2019-02-24T03:38:03.444Z,48.97
2019-02-24T03:40:33.782Z,47.67
2019-02-24T03:43:04.065Z,40.87
2019-02-24T03:45:34.541Z,51.30
2019-02-24T03:48:05.205Z,50.03
2019-02-24T03:50:35.394Z,42.30
2019-02-24T03:53:05.681Z,48.10
2019-02-24T03:55:35.962Z,47.83
2019-02-24T03:58:06.315Z,48.60
2019-02-24T04:00:37.254Z,47.90
2019-02-24T04:03:07.511Z,46.67
2019-02-24T04:05:37.882Z,42.90
2019-02-24T04:08:08.174Z,44.07
2019-02-24T04:10:38.731Z,51.03
2019-02-24T04:13:09.304Z,46.47
2019-02-24T04:15:40.119Z,45.57
2019-02-24T04:18:10.345Z,38.93
2019-02-24T04:20:40.686Z,43.57
2019-02-24T04:23:10.938Z,42.87
2019-02-24T04:25:41.757Z,47.57
2019-02-24T04:28:12.019Z,43.93
2019-02-24T04:30:42.919Z,44.63
2019-02-24T04:33:13.235Z,51.07
2019-02-24T04:35:43.492Z,47.77
2019-02-24T04:38:15.931Z,50.37
2019-02-24T04:40:45.673Z,45.50
2019-02-24T04:43:16.441Z,44.27
2019-02-24T04:45:46.603Z,45.33
2019-02-24T04:48:17.280Z,48.47
2019-02-24T04:50:47.548Z,44.17
2019-02-24T04:53:18.093Z,46.20
2019-02-24T04:55:48.473Z,50.20
2019-02-24T04:58:18.814Z,49.03
2019-02-24T05:00:49.812Z,52.13
2019-02-24T05:03:20.083Z,55.10
2019-02-24T05:05:50.382Z,48.03
2019-02-24T05:08:20.569Z,53.47
2019-02-24T05:10:50.817Z,54.87
2019-02-24T05:13:21.105Z,43.13
2019-02-24T05:15:51.388Z,52.10
2019-02-24T05:18:21.590Z,54.10
2019-02-24T05:20:51.888Z,49.37
2019-02-24T05:23:22.167Z,52.67
2019-02-24T05:25:52.763Z,61.20
2019-02-24T05:28:23.381Z,51.90
2019-02-24T05:30:54.623Z,54.33
2019-02-24T05:33:24.924Z,50.20
2019-02-24T05:35:55.237Z,50.00
2019-02-24T05:38:25.555Z,52.70
2019-02-24T05:40:55.794Z,52.67
2019-02-24T05:43:26.101Z,51.20
2019-02-24T05:45:56.391Z,47.07
2019-02-24T05:48:26.769Z,57.77
2019-02-24T05:50:57.040Z,52.80
2019-02-24T05:53:27.364Z,55.83
2019-02-24T05:55:57.653Z,47.90
2019-02-24T05:58:28.147Z,50.27
2019-02-24T06:00:57.866Z,54.37
2019-02-24T06:03:28.140Z,53.67
2019-02-24T06:05:58.411Z,52.87
2019-02-24T06:08:28.999Z,58.37
2019-02-24T06:10:59.298Z,52.80
2019-02-24T06:13:29.567Z,53.63
2019-02-24T06:15:59.943Z,54.30
2019-02-24T06:18:30.211Z,51.97
2019-02-24T06:21:00.491Z,63.60
2019-02-24T06:23:30.876Z,58.27
2019-02-24T06:26:01.450Z,58.93
2019-02-24T06:28:31.651Z,56.90
2019-02-24T06:31:02.135Z,56.53
2019-02-24T06:33:32.600Z,55.53
2019-02-24T06:36:02.916Z,62.13
2019-02-24T06:38:33.207Z,54.53
2019-02-24T06:41:03.726Z,62.83
2019-02-24T06:43:33.974Z,58.17
2019-02-24T06:46:04.668Z,55.73
2019-02-24T06:48:35.003Z,62.83
2019-02-24T06:51:11.682Z,58.57
2019-02-24T06:53:41.976Z,54.30
2019-02-24T06:56:12.439Z,54.80
2019-02-24T06:58:42.730Z,54.57
2019-02-24T07:01:13.040Z,60.20
2019-02-24T07:03:44.022Z,57.33
2019-02-24T07:06:15.954Z,59.70
2019-02-24T07:08:46.454Z,61.90
2019-02-24T07:11:16.766Z,58.33
2019-02-24T07:13:47.016Z,63.27
2019-02-24T07:16:17.322Z,58.03
2019-02-24T07:18:47.652Z,63.07
2019-02-24T07:21:18.338Z,63.13
2019-02-24T07:23:48.698Z,59.57
2019-02-24T07:26:19.404Z,62.67
2019-02-24T07:28:50.414Z,59.77
2019-02-24T07:31:20.655Z,64.07
2019-02-24T07:33:52.181Z,60.23
2019-02-24T07:36:22.519Z,56.03
2019-02-24T07:38:52.752Z,58.23
2019-02-24T07:41:23.215Z,59.93
2019-02-24T07:43:53.870Z,62.03
2019-02-24T07:46:24.558Z,57.63
2019-02-24T07:48:56.013Z,58.23
2019-02-24T07:51:26.366Z,59.73
2019-02-24T07:53:59.786Z,56.10
2019-02-24T07:56:30.435Z,56.17
2019-02-24T07:59:00.914Z,56.43
2019-02-24T08:01:37.660Z,58.83
2019-02-24T08:04:08.047Z,51.13
2019-02-24T08:06:38.320Z,55.53
2019-02-24T08:09:08.793Z,56.17
2019-02-24T08:11:39.286Z,59.43
2019-02-24T08:14:09.958Z,51.73
2019-02-24T08:16:40.455Z,62.40
2019-02-24T08:19:11.050Z,53.20
2019-02-24T08:21:41.308Z,47.17
2019-02-24T08:24:12.002Z,56.53
2019-02-24T08:26:42.253Z,50.43
2019-02-24T08:29:13.723Z,53.93
2019-02-24T08:31:44.017Z,52.70
2019-02-24T08:34:14.258Z,53.27
2019-02-24T08:36:46.083Z,52.13
2019-02-24T08:39:16.377Z,50.13
2019-02-24T08:41:46.566Z,57.77
2019-02-24T08:44:17.174Z,49.17
2019-02-24T08:46:47.366Z,49.90
2019-02-24T08:49:17.623Z,48.33
2019-02-24T08:51:48.135Z,46.13
2019-02-24T08:54:18.403Z,51.40
2019-02-24T08:56:48.905Z,48.13
2019-02-24T08:59:19.193Z,47.53
2019-02-24T09:01:49.952Z,43.63
2019-02-24T09:04:21.233Z,42.47
2019-02-24T09:06:51.595Z,43.13
2019-02-24T09:09:22.065Z,48.17
2019-02-24T09:11:52.331Z,45.47
2019-02-24T09:14:22.693Z,45.17
2019-02-24T09:16:52.971Z,45.97
2019-02-24T09:19:23.252Z,41.10
2019-02-24T09:21:53.504Z,44.43
2019-02-24T09:24:23.759Z,43.93
2019-02-24T09:26:54.045Z,34.30
2019-02-24T09:29:24.854Z,38.83
2019-02-24T09:31:55.177Z,48.10
2019-02-24T09:34:25.438Z,38.07
2019-02-24T09:36:56.744Z,40.10
2019-02-24T09:39:27.067Z,40.37
2019-02-24T09:41:57.375Z,39.63
2019-02-24T09:44:27.738Z,39.53
2019-02-24T09:46:57.994Z,36.13
2019-02-24T09:49:28.783Z,37.23
2019-02-24T09:51:59.101Z,38.20
2019-02-24T09:54:29.623Z,37.70
2019-02-24T09:57:00.189Z,34.23
2019-02-24T09:59:30.464Z,31.50
2019-02-24T10:02:01.132Z,36.27
2019-02-24T10:04:31.500Z,38.27
2019-02-24T10:07:03.703Z,36.40
2019-02-24T10:09:33.998Z,40.87
2019-02-24T10:12:04.503Z,36.33
2019-02-24T10:14:35.237Z,32.13
2019-02-24T10:17:06.828Z,40.97
2019-02-24T10:19:37.883Z,33.10
2019-02-24T10:22:08.210Z,35.40
2019-02-24T10:24:38.636Z,40.90
2019-02-24T10:27:09.027Z,41.70
2019-02-24T10:29:41.438Z,37.40
2019-02-24T10:32:11.742Z,37.97
2019-02-24T10:34:42.064Z,37.13
2019-02-24T10:37:12.331Z,37.73
2019-02-24T10:39:42.766Z,42.60
2019-02-24T10:42:13.037Z,35.33
2019-02-24T10:44:44.200Z,40.57
2019-02-24T10:47:14.554Z,35.87
2019-02-24T10:49:45.158Z,36.77
2019-02-24T10:52:15.568Z,39.97
2019-02-24T10:54:45.904Z,38.53
2019-02-24T10:57:18.790Z,37.10
2019-02-24T10:59:49.028Z,39.73
2019-02-24T11:02:19.634Z,36.47
2019-02-24T11:04:49.983Z,38.07
2019-02-24T11:07:20.394Z,37.57
2019-02-24T11:09:50.769Z,38.70
2019-02-24T11:12:21.047Z,41.37
2019-02-24T11:14:51.438Z,40.27
2019-02-24T11:17:21.703Z,38.47
2019-02-24T11:19:52.568Z,39.97
2019-02-24T11:22:22.892Z,40.10
2019-02-24T11:24:53.216Z,37.20
2019-02-24T11:27:23.474Z,40.87
2019-02-24T11:29:53.794Z,45.03
2019-02-24T11:32:24.021Z,38.00
2019-02-24T11:34:54.282Z,42.93
2019-02-24T11:37:24.651Z,40.60
2019-02-24T11:39:55.031Z,38.80
2019-02-24T11:42:25.404Z,45.30
2019-02-24T11:44:55.766Z,39.53
2019-02-24T11:47:26.098Z,43.40
2019-02-24T11:49:56.391Z,39.03
2019-02-24T11:52:26.762Z,38.73
2019-02-24T11:54:57.112Z,37.63
2019-02-24T11:57:27.436Z,41.77
2019-02-24T11:59:57.733Z,37.13
2019-02-24T12:02:34.222Z,40.03
2019-02-24T12:05:01.968Z,40.40
2019-02-24T12:07:32.423Z,40.80
2019-02-24T12:10:02.945Z,47.33
2019-02-24T12:12:33.306Z,37.30
2019-02-24T12:15:03.593Z,40.13
2019-02-24T12:17:34.542Z,45.50
2019-02-24T12:20:05.605Z,42.70
2019-02-24T12:22:36.131Z,38.93
2019-02-24T12:25:07.139Z,41.83
2019-02-24T12:27:39.474Z,49.70
2019-02-24T12:30:10.672Z,40.70
2019-02-24T12:32:41.121Z,43.50
2019-02-24T12:35:11.346Z,48.20
2019-02-24T12:37:41.630Z,41.53
2019-02-24T12:40:12.289Z,44.83
2019-02-24T12:42:42.775Z,40.70
2019-02-24T12:45:13.157Z,44.53
2019-02-24T12:47:43.569Z,53.00
2019-02-24T12:50:14.552Z,48.47
2019-02-24T12:52:44.811Z,41.97
2019-02-24T12:55:15.223Z,47.57
2019-02-24T12:57:45.752Z,48.93
2019-02-24T13:00:18.233Z,47.50
2019-02-24T13:02:48.810Z,49.27
2019-02-24T13:05:20.213Z,48.03
2019-02-24T13:07:50.463Z,48.57
2019-02-24T13:10:21.270Z,46.00
2019-02-24T13:12:51.563Z,44.90
2019-02-24T13:15:21.813Z,49.83
2019-02-24T13:17:52.535Z,50.17
2019-02-24T13:20:22.809Z,46.80
2019-02-24T13:22:53.097Z,47.43
2019-02-24T13:25:23.827Z,52.33
2019-02-24T13:27:54.090Z,53.20
2019-02-24T13:30:24.385Z,45.53
2019-02-24T13:32:55.304Z,55.50
2019-02-24T13:35:26.850Z,48.43
2019-02-24T13:37:57.160Z,47.17
2019-02-24T13:40:27.451Z,47.83
2019-02-24T13:42:57.783Z,46.87
2019-02-24T13:45:28.131Z,53.90
2019-02-24T13:47:58.656Z,57.60
2019-02-24T13:50:29.194Z,49.83
2019-02-24T13:52:59.734Z,57.93
2019-02-24T13:55:32.415Z,50.67
2019-02-24T13:58:02.799Z,49.80
2019-02-24T14:00:34.303Z,53.40
2019-02-24T14:03:04.669Z,53.47
2019-02-24T14:05:35.141Z,53.90
2019-02-24T14:08:05.578Z,54.63
2019-02-24T14:10:35.841Z,48.00
2019-02-24T14:13:06.439Z,54.33
2019-02-24T14:15:36.827Z,51.57
2019-02-24T14:18:07.130Z,54.43
2019-02-24T14:20:37.375Z,52.37
2019-02-24T14:23:07.936Z,54.23
2019-02-24T14:25:38.175Z,52.43
2019-02-24T14:28:08.468Z,54.27
2019-02-24T14:30:39.003Z,54.50
2019-02-24T14:33:09.723Z,51.17
2019-02-24T14:35:40.026Z,53.50
2019-02-24T14:38:10.366Z,56.57
2019-02-24T14:40:40.731Z,53.67
2019-02-24T14:43:11.136Z,58.27
2019-02-24T14:45:49.464Z,57.90
2019-02-24T14:48:13.730Z,53.33
2019-02-24T14:50:44.028Z,54.10
2019-02-24T14:53:14.797Z,52.93
2019-02-24T14:55:45.137Z,59.17
2019-02-24T14:58:15.823Z,56.50
2019-02-24T15:00:46.096Z,54.37
2019-02-24T15:03:16.615Z,56.10
2019-02-24T15:05:46.896Z,51.97
2019-02-24T15:08:17.204Z,56.53
2019-02-24T15:10:49.874Z,53.80
2019-02-24T15:13:20.130Z,53.70
2019-02-24T15:15:50.601Z,54.30
2019-02-24T15:18:20.880Z,51.20
2019-02-24T15:20:51.286Z,49.80
2019-02-24T15:23:21.557Z,46.97
2019-02-24T15:25:51.848Z,51.13
2019-02-24T15:28:22.382Z,46.60
2019-02-24T15:30:52.737Z,46.83
2019-02-24T15:33:23.404Z,46.20
2019-02-24T15:35:53.701Z,50.13
2019-02-24T15:38:24.034Z,57.80
2019-02-24T15:40:54.490Z,58.50
2019-02-24T15:43:25.154Z,56.27
2019-02-24T15:45:55.442Z,60.77
2019-02-24T15:48:26.195Z,61.03
2019-02-24T15:50:56.540Z,65.40
2019-02-24T15:53:26.944Z,61.63
2019-02-24T15:55:57.546Z,68.43
2019-02-24T15:58:27.897Z,61.63
2019-02-24T16:00:58.471Z,59.60
2019-02-24T16:03:28.744Z,59.37
2019-02-24T16:05:59.125Z,62.97
2019-02-24T16:08:29.368Z,59.87
2019-02-24T16:10:59.745Z,64.83
2019-02-24T16:13:30.429Z,57.73
2019-02-24T16:16:00.742Z,57.83
2019-02-24T16:18:31.015Z,62.17
2019-02-24T16:21:01.500Z,65.13
2019-02-24T16:23:33.366Z,67.47
2019-02-24T16:26:03.679Z,71.30
2019-02-24T16:28:34.264Z,70.50
2019-02-24T16:31:04.736Z,67.43
2019-02-24T16:33:35.379Z,66.17
2019-02-24T16:36:05.681Z,71.57
2019-02-24T16:38:35.899Z,74.13
2019-02-24T16:41:06.194Z,69.10
2019-02-24T16:43:36.576Z,73.77
2019-02-24T16:46:06.954Z,69.47
2019-02-24T16:48:37.215Z,69.27
2019-02-24T16:51:07.674Z,64.73
2019-02-24T16:53:37.963Z,69.83
2019-02-24T16:56:08.709Z,65.33
2019-02-24T16:58:39.019Z,69.20
2019-02-24T17:01:09.421Z,74.43
2019-02-24T17:03:39.877Z,73.37
2019-02-24T17:06:10.067Z,71.70
2019-02-24T17:08:40.944Z,74.97
2019-02-24T17:11:11.377Z,77.83
2019-02-24T17:13:42.621Z,75.07
2019-02-24T17:16:12.856Z,80.07
2019-02-24T17:18:43.650Z,78.67
2019-02-24T17:21:14.211Z,77.47
2019-02-24T17:23:49.949Z,76.93
2019-02-24T17:26:16.763Z,73.83
2019-02-24T17:28:47.327Z,77.60
2019-02-24T17:31:17.694Z,79.43
2019-02-24T17:33:48.265Z,71.47
2019-02-24T17:36:18.667Z,80.57
2019-02-24T17:38:49.250Z,77.47
2019-02-24T17:41:19.550Z,73.57
2019-02-24T17:43:51.123Z,84.83
2019-02-24T17:46:21.475Z,81.83
2019-02-24T17:48:51.847Z,82.53
2019-02-24T17:51:22.536Z,82.30
2019-02-24T17:53:54.210Z,79.80
2019-02-24T17:56:27.229Z,78.00
2019-02-24T17:58:57.683Z,78.43
2019-02-24T18:01:28.835Z,74.87
2019-02-24T18:03:59.348Z,78.70
2019-02-24T18:06:29.916Z,78.00
2019-02-24T18:09:03.699Z,84.70
2019-02-24T18:11:35.518Z,91.13
2019-02-24T18:14:05.843Z,98.23
2019-02-24T18:16:37.776Z,88.43
2019-02-24T18:19:08.370Z,99.63
2019-02-24T18:21:39.866Z,95.33
2019-02-24T18:24:11.262Z,91.30
2019-02-24T18:26:41.974Z,99.20
2019-02-24T18:29:13.536Z,96.80
2019-02-24T18:31:43.921Z,92.03
2019-02-24T18:34:14.591Z,85.50
2019-02-24T18:36:45.016Z,89.67
2019-02-24T18:39:15.658Z,88.70
2019-02-24T18:41:45.999Z,84.83
2019-02-24T18:44:16.906Z,81.87
2019-02-24T18:46:47.326Z,88.23
2019-02-24T18:49:17.692Z,82.13
2019-02-24T18:51:47.992Z,82.70
2019-02-24T18:54:18.486Z,82.30
2019-02-24T18:56:48.823Z,88.70
2019-02-24T18:59:19.307Z,93.27
2019-02-24T19:01:50.605Z,90.30
2019-02-24T19:04:20.870Z,88.37
2019-02-24T19:06:51.116Z,91.67
2019-02-24T19:09:21.777Z,96.03
2019-02-24T19:11:52.045Z,99.67
2019-02-24T19:14:22.375Z,94.53
2019-02-24T19:16:53.354Z,92.90
2019-02-24T19:19:25.816Z,106.23
2019-02-24T19:21:56.088Z,106.33
2019-02-24T19:24:26.417Z,106.23
2019-02-24T19:26:56.970Z,110.23
2019-02-24T19:29:27.304Z,110.97
2019-02-24T19:31:57.592Z,107.90
2019-02-24T19:34:29.491Z,103.73
2019-02-24T19:36:59.887Z,104.60
2019-02-24T19:39:30.251Z,107.37
2019-02-24T19:42:00.682Z,103.50
2019-02-24T19:44:31.525Z,106.33
2019-02-24T19:47:02.160Z,103.27
2019-02-24T19:49:32.603Z,102.23
2019-02-24T19:52:03.018Z,100.70
2019-02-24T19:54:33.489Z,106.60
2019-02-24T19:57:04.192Z,98.90
2019-02-24T19:59:37.454Z,98.33
2019-02-24T20:02:08.333Z,103.47
2019-02-24T20:04:38.897Z,93.80
2019-02-24T20:07:09.245Z,103.50
2019-02-24T20:09:39.548Z,100.73
2019-02-24T20:12:10.003Z,98.97
2019-02-24T20:14:40.379Z,98.73
2019-02-24T20:17:10.766Z,102.70
2019-02-24T20:19:41.077Z,100.13
2019-02-24T20:22:11.724Z,93.87
2019-02-24T20:24:41.999Z,94.77
2019-02-24T20:27:12.270Z,99.37
2019-02-24T20:29:42.922Z,95.67
2019-02-24T20:32:13.261Z,89.40
2019-02-24T20:34:43.991Z,97.97
2019-02-24T20:37:14.297Z,93.30
2019-02-24T20:39:44.665Z,88.60
2019-02-24T20:42:15.013Z,93.20
2019-02-24T20:44:45.295Z,84.83
2019-02-24T20:47:15.859Z,91.70
2019-02-24T20:49:46.609Z,95.03
2019-02-24T20:52:17.377Z,87.77
2019-02-24T20:54:47.697Z,90.13
2019-02-24T20:57:18.263Z,81.00
2019-02-24T20:59:48.602Z,87.97
2019-02-24T21:02:18.895Z,86.17
2019-02-24T21:04:49.242Z,79.50
2019-02-24T21:07:19.519Z,73.43
2019-02-24T21:09:50.223Z,76.93
2019-02-24T21:12:20.598Z,73.33
2019-02-24T21:14:51.351Z,75.83
2019-02-24T21:17:21.699Z,72.03
2019-02-24T21:19:52.262Z,74.40
2019-02-24T21:22:22.607Z,74.23
2019-02-24T21:24:52.915Z,69.43
2019-02-24T21:27:23.985Z,70.53
2019-02-24T21:29:54.302Z,67.83
2019-02-24T21:32:28.005Z,76.87
2019-02-24T21:34:58.305Z,72.37
2019-02-24T21:37:28.648Z,68.73
2019-02-24T21:39:58.978Z,72.27
2019-02-24T21:42:29.287Z,74.13
2019-02-24T21:44:59.676Z,72.00
2019-02-24T21:47:30.343Z,76.30
2019-02-24T21:50:01.100Z,71.83
2019-02-24T21:52:32.075Z,71.87
2019-02-24T21:55:02.352Z,78.80
2019-02-24T21:57:32.822Z,70.53
2019-02-24T22:00:03.502Z,77.20
2019-02-24T22:02:34.706Z,79.63
2019-02-24T22:05:05.741Z,72.30
2019-02-24T22:07:36.007Z,72.40
2019-02-24T22:10:08.245Z,73.83
2019-02-24T22:12:38.567Z,73.03
2019-02-24T22:15:11.498Z,71.33
2019-02-24T22:17:42.153Z,68.63
2019-02-24T22:20:13.302Z,83.03
2019-02-24T22:22:43.621Z,64.57
2019-02-24T22:25:14.005Z,71.37
2019-02-24T22:27:44.415Z,71.80
2019-02-24T22:30:16.184Z,71.50
2019-02-24T22:32:46.585Z,63.40
2019-02-24T22:35:16.927Z,68.30
2019-02-24T22:37:47.409Z,68.03
2019-02-24T22:40:17.916Z,66.33
2019-02-24T22:42:48.255Z,67.43
2019-02-24T22:45:18.894Z,77.40
2019-02-24T22:47:49.170Z,71.33
2019-02-24T22:50:22.575Z,70.70
2019-02-24T22:52:52.981Z,67.87
2019-02-24T22:55:23.238Z,69.50
2019-02-24T22:57:53.551Z,67.73
2019-02-24T23:01:15.799Z,72.50
2019-02-24T23:03:48.386Z,67.43
2019-02-24T23:06:18.786Z,71.70
2019-02-24T23:08:48.947Z,73.70
2019-02-24T23:11:19.450Z,66.60
2019-02-24T23:13:49.881Z,68.13
2019-02-24T23:16:21.646Z,70.53
2019-02-24T23:18:52.170Z,63.73
2019-02-24T23:21:22.650Z,68.57
2019-02-24T23:23:53.313Z,71.00
2019-02-24T23:26:23.708Z,75.53
2019-02-24T23:28:54.385Z,72.47
2019-02-24T23:31:24.663Z,66.60
2019-02-24T23:33:55.445Z,74.33
2019-02-24T23:36:25.812Z,66.00
2019-02-24T23:38:56.138Z,64.93
2019-02-24T23:41:26.431Z,74.30
2019-02-24T23:43:56.823Z,73.43
2019-02-24T23:46:27.026Z,67.93
2019-02-24T23:48:57.348Z,78.07
2019-02-24T23:51:27.647Z,71.90
2019-02-24T23:53:57.997Z,72.17
2019-02-24T23:56:28.218Z,67.00
2019-02-24T23:58:59.723Z,75.93
